createdAt,value
2019-02-17T00:00:14.425Z,85.40
2019-02-17T00:02:43.328Z,84.80
2019-02-17T00:05:12.216Z,83.50
2019-02-17T00:07:41.342Z,82.70
2019-02-17T00:10:10.127Z,83.10
2019-02-17T00:12:39.030Z,83.40
2019-02-17T00:15:09.051Z,82.30
2019-02-17T00:17:37.829Z,83.00
2019-02-17T00:20:08.212Z,82.60
2019-02-17T00:22:37.551Z,81.80
2019-02-17T00:25:07.379Z,82.50
2019-02-17T00:27:36.207Z,83.30
2019-02-17T00:30:07.974Z,84.60
2019-02-17T00:32:36.825Z,85.10
2019-02-17T00:35:09.629Z,86.00
2019-02-17T00:37:38.396Z,88.10
2019-02-17T00:40:08.444Z,87.20
2019-02-17T00:42:37.545Z,86.70
2019-02-17T00:45:08.250Z,85.80
2019-02-17T00:47:37.150Z,85.50
2019-02-17T00:50:08.423Z,84.80
2019-02-17T00:52:50.306Z,85.70
2019-02-17T00:55:19.319Z,85.00
2019-02-17T00:57:48.168Z,83.30
2019-02-17T01:00:17.611Z,82.10
2019-02-17T01:02:46.455Z,81.70
2019-02-17T01:05:15.208Z,81.10
2019-02-17T01:07:44.051Z,79.60
2019-02-17T01:10:12.829Z,78.90
2019-02-17T01:12:41.618Z,78.30
2019-02-17T01:15:12.102Z,79.40
2019-02-17T01:17:40.932Z,80.80
2019-02-17T01:20:10.652Z,80.70
2019-02-17T01:22:39.476Z,82.50
2019-02-17T01:25:09.725Z,83.10
2019-02-17T01:27:38.455Z,83.20
2019-02-17T01:30:09.971Z,83.30
2019-02-17T01:32:38.748Z,83.70
2019-02-17T01:35:07.524Z,83.60
2019-02-17T01:37:36.367Z,83.60
2019-02-17T01:40:08.158Z,84.90
2019-02-17T01:42:36.952Z,85.70
2019-02-17T01:45:08.372Z,85.90
2019-02-17T01:47:37.184Z,85.40
2019-02-17T01:50:08.311Z,85.30
2019-02-17T01:52:37.059Z,86.00
2019-02-17T01:55:07.986Z,85.10
2019-02-17T01:57:36.795Z,85.20
2019-02-17T02:00:08.353Z,84.90
2019-02-17T02:02:37.148Z,85.60
2019-02-17T02:05:06.721Z,85.80
2019-02-17T02:07:35.626Z,86.10
2019-02-17T02:10:06.923Z,85.90
2019-02-17T02:12:35.561Z,85.00
2019-02-17T02:15:06.112Z,85.20
2019-02-17T02:17:34.783Z,85.70
2019-02-17T02:20:05.272Z,86.70
2019-02-17T02:22:33.945Z,88.00
2019-02-17T02:25:03.058Z,88.50
2019-02-17T02:27:31.736Z,89.40
2019-02-17T02:30:00.562Z,90.30
2019-02-17T02:32:29.249Z,90.70
2019-02-17T02:34:57.959Z,90.50
2019-02-17T02:37:26.674Z,90.60
2019-02-17T02:39:55.345Z,91.00
2019-02-17T02:42:23.933Z,91.40
2019-02-17T02:44:52.564Z,92.00
2019-02-17T02:47:21.230Z,92.30
2019-02-17T02:49:49.915Z,92.70
2019-02-17T02:52:18.703Z,92.70
2019-02-17T02:54:47.437Z,92.70
2019-02-17T02:57:16.316Z,92.60
2019-02-17T02:59:52.101Z,92.80
2019-02-17T03:02:15.561Z,92.90
2019-02-17T03:04:44.341Z,92.80
2019-02-17T03:07:13.332Z,92.40
2019-02-17T03:09:42.087Z,91.90
2019-02-17T03:12:10.933Z,91.40
2019-02-17T03:14:39.634Z,91.10
2019-02-17T03:17:08.429Z,91.00
2019-02-17T03:19:37.118Z,91.20
2019-02-17T03:22:05.879Z,91.40
2019-02-17T03:24:34.638Z,91.30
2019-02-17T03:27:03.440Z,91.00
2019-02-17T03:29:32.219Z,91.00
2019-02-17T03:32:00.930Z,91.00
2019-02-17T03:34:29.795Z,91.40
2019-02-17T03:36:58.460Z,91.50
2019-02-17T03:39:27.158Z,92.30
2019-02-17T03:41:55.880Z,92.40
2019-02-17T03:44:24.562Z,92.00
2019-02-17T03:46:53.243Z,91.50
2019-02-17T03:49:22.089Z,92.00
2019-02-17T03:51:50.952Z,92.30
2019-02-17T03:54:19.806Z,92.60
2019-02-17T03:56:48.567Z,92.70
2019-02-17T03:59:17.324Z,92.70
2019-02-17T04:01:46.109Z,92.60
2019-02-17T04:04:15.346Z,93.30
2019-02-17T04:06:44.116Z,93.60
2019-02-17T04:09:12.881Z,93.00
2019-02-17T04:11:41.578Z,93.10
2019-02-17T04:14:10.301Z,92.90
2019-02-17T04:16:39.077Z,92.60
2019-02-17T04:19:07.761Z,92.90
2019-02-17T04:21:36.451Z,93.30
2019-02-17T04:24:05.249Z,93.30
2019-02-17T04:26:33.922Z,93.20
2019-02-17T04:29:02.701Z,92.90
2019-02-17T04:31:31.410Z,93.10
2019-02-17T04:34:00.041Z,93.40
2019-02-17T04:36:29.800Z,93.70
2019-02-17T04:38:58.600Z,94.00
2019-02-17T04:41:27.393Z,94.20
2019-02-17T04:43:56.192Z,94.50
2019-02-17T04:46:24.861Z,94.30
2019-02-17T04:48:54.169Z,94.50
2019-02-17T04:51:22.847Z,94.50
2019-02-17T04:53:51.878Z,94.40
2019-02-17T04:56:20.974Z,94.40
2019-02-17T04:58:49.718Z,94.40
2019-02-17T05:01:18.349Z,94.30
2019-02-17T05:03:47.177Z,94.10
2019-02-17T05:06:15.898Z,94.10
2019-02-17T05:08:45.190Z,93.90
2019-02-17T05:11:13.872Z,94.10
2019-02-17T05:13:42.733Z,93.50
2019-02-17T05:16:11.557Z,93.60
2019-02-17T05:18:40.225Z,93.20
2019-02-17T05:21:08.966Z,93.00
2019-02-17T05:23:37.762Z,93.10
2019-02-17T05:26:06.503Z,93.20
2019-02-17T05:28:35.158Z,93.30
2019-02-17T05:31:03.973Z,93.10
2019-02-17T05:33:32.648Z,93.30
2019-02-17T05:36:01.279Z,92.70
2019-02-17T05:38:30.055Z,92.70
2019-02-17T05:40:58.742Z,92.70
2019-02-17T05:43:27.402Z,92.70
2019-02-17T05:45:56.084Z,92.70
2019-02-17T05:48:24.800Z,92.60
2019-02-17T05:50:53.528Z,93.00
2019-02-17T05:53:22.225Z,92.70
2019-02-17T05:55:50.958Z,92.60
2019-02-17T05:58:19.707Z,92.60
2019-02-17T06:00:48.577Z,93.30
2019-02-17T06:03:17.353Z,93.30
2019-02-17T06:05:46.092Z,93.30
2019-02-17T06:08:14.876Z,93.50
2019-02-17T06:10:43.631Z,93.30
2019-02-17T06:13:12.659Z,93.30
2019-02-17T06:15:42.398Z,93.20
2019-02-17T06:18:11.152Z,93.10
2019-02-17T06:20:39.877Z,93.20
2019-02-17T06:23:08.710Z,93.10
2019-02-17T06:25:37.490Z,93.00
2019-02-17T06:28:06.303Z,93.00
2019-02-17T06:30:35.245Z,92.70
2019-02-17T06:33:04.067Z,92.70
2019-02-17T06:35:32.672Z,92.50
2019-02-17T06:38:01.449Z,92.60
2019-02-17T06:40:30.208Z,92.40
2019-02-17T06:42:58.808Z,92.00
2019-02-17T06:45:27.479Z,92.20
2019-02-17T06:47:56.176Z,92.40
2019-02-17T06:50:25.138Z,92.20
2019-02-17T06:52:53.955Z,91.80
2019-02-17T06:55:22.714Z,91.60
2019-02-17T06:57:51.354Z,91.40
2019-02-17T07:00:21.720Z,91.10
2019-02-17T07:02:50.525Z,90.40
2019-02-17T07:05:19.338Z,88.80
2019-02-17T07:07:48.193Z,87.60
2019-02-17T07:10:16.926Z,83.90
2019-02-17T07:12:45.672Z,81.30
2019-02-17T07:15:14.449Z,78.50
2019-02-17T07:17:43.285Z,76.80
2019-02-17T07:20:11.976Z,71.80
2019-02-17T07:22:40.743Z,65.50
2019-02-17T07:25:09.610Z,61.30
2019-02-17T07:27:38.404Z,60.00
2019-02-17T07:30:07.620Z,61.30
2019-02-17T07:32:36.351Z,61.70
2019-02-17T07:35:06.289Z,59.30
2019-02-17T07:37:35.048Z,58.50
2019-02-17T07:40:04.696Z,57.60
2019-02-17T07:42:33.439Z,53.90
2019-02-17T07:45:02.176Z,51.30
2019-02-17T07:47:30.891Z,46.60
2019-02-17T07:49:59.738Z,43.20
2019-02-17T07:52:28.488Z,43.90
2019-02-17T07:54:57.285Z,44.90
2019-02-17T07:57:26.155Z,42.40
2019-02-17T07:59:54.881Z,36.70
2019-02-17T08:02:23.589Z,36.30
2019-02-17T08:04:52.381Z,37.20
2019-02-17T08:07:21.117Z,35.10
2019-02-17T08:09:49.900Z,31.10
2019-02-17T08:12:18.564Z,29.80
2019-02-17T08:14:47.351Z,30.00
2019-02-17T08:17:16.683Z,29.10
2019-02-17T08:19:45.461Z,28.60
2019-02-17T08:22:14.238Z,24.50
2019-02-17T08:24:43.175Z,22.60
2019-02-17T08:27:13.439Z,18.50
2019-02-17T08:29:46.455Z,14.00
2019-02-17T08:32:15.957Z,12.70
2019-02-17T08:34:44.770Z,13.20
2019-02-17T08:37:13.522Z,14.10
2019-02-17T08:39:42.386Z,15.80
2019-02-17T08:42:11.256Z,12.30
2019-02-17T08:44:40.004Z,12.90
2019-02-17T08:47:08.828Z,13.50
2019-02-17T08:49:37.590Z,13.10
2019-02-17T08:52:06.310Z,11.10
2019-02-17T08:54:36.738Z,10.10
2019-02-17T08:57:05.819Z,12.50
2019-02-17T08:59:34.550Z,13.60
2019-02-17T09:02:06.268Z,9.70
2019-02-17T09:04:34.968Z,8.60
2019-02-17T09:07:06.252Z,8.80
2019-02-17T09:09:34.395Z,7.50
2019-02-17T09:12:03.084Z,7.10
2019-02-17T09:14:32.024Z,9.40
2019-02-17T09:17:00.846Z,12.30
2019-02-17T09:19:29.730Z,12.70
2019-02-17T09:21:58.424Z,10.70
2019-02-17T09:24:27.783Z,10.00
2019-02-17T09:26:56.514Z,11.00
2019-02-17T09:29:25.320Z,12.40
2019-02-17T09:31:54.202Z,9.90
2019-02-17T09:34:23.023Z,7.00
2019-02-17T09:36:51.763Z,5.70
2019-02-17T09:39:20.610Z,4.80
2019-02-17T09:41:49.546Z,4.70
2019-02-17T09:44:18.456Z,4.60
2019-02-17T09:46:48.628Z,5.60
2019-02-17T09:49:17.406Z,4.50
2019-02-17T09:51:47.597Z,4.30
2019-02-17T09:54:16.360Z,3.00
2019-02-17T09:56:48.005Z,2.80
2019-02-17T09:59:17.240Z,3.10
2019-02-17T10:01:45.997Z,3.50
2019-02-17T10:04:15.534Z,3.50
2019-02-17T10:06:45.785Z,3.80
2019-02-17T10:09:15.293Z,3.00
2019-02-17T10:11:44.230Z,3.40
2019-02-17T10:14:14.426Z,3.00
2019-02-17T10:16:45.826Z,3.00
2019-02-17T10:19:14.805Z,3.30
2019-02-17T10:21:44.904Z,3.10
2019-02-17T10:24:16.715Z,4.40
2019-02-17T10:26:45.502Z,4.50
2019-02-17T10:29:14.303Z,3.80
2019-02-17T10:31:44.452Z,3.10
2019-02-17T10:34:13.248Z,3.10
2019-02-17T10:36:47.996Z,3.20
2019-02-17T10:39:16.925Z,2.80
2019-02-17T10:41:45.810Z,2.80
2019-02-17T10:44:14.854Z,3.00
2019-02-17T10:46:43.659Z,3.20
2019-02-17T10:49:12.700Z,2.70
2019-02-17T10:51:41.462Z,2.30
2019-02-17T10:54:10.189Z,2.50
2019-02-17T10:56:38.989Z,2.00
2019-02-17T10:59:08.102Z,1.90
2019-02-17T11:01:37.046Z,2.40
2019-02-17T11:04:07.819Z,2.90
2019-02-17T11:06:36.712Z,3.00
2019-02-17T11:09:08.287Z,3.20
2019-02-17T11:11:37.172Z,3.50
2019-02-17T11:14:05.920Z,4.20
2019-02-17T11:16:34.690Z,3.60
2019-02-17T11:19:03.453Z,3.30
2019-02-17T11:21:32.262Z,3.50
2019-02-17T11:24:01.099Z,2.80
2019-02-17T11:26:29.921Z,2.90
2019-02-17T11:28:58.825Z,2.60
2019-02-17T11:31:27.636Z,2.50
2019-02-17T11:33:56.643Z,2.50
2019-02-17T11:36:25.344Z,2.30
2019-02-17T11:38:54.166Z,1.50
2019-02-17T11:41:23.621Z,1.20
2019-02-17T11:43:54.774Z,1.50
2019-02-17T11:46:23.340Z,1.80
2019-02-17T11:48:53.813Z,2.20
2019-02-17T11:51:22.680Z,2.00
2019-02-17T11:53:57.544Z,2.40
2019-02-17T11:56:26.462Z,2.60
2019-02-17T11:58:55.405Z,3.00
2019-02-17T12:01:24.330Z,2.10
2019-02-17T12:03:53.160Z,3.20
2019-02-17T12:06:21.978Z,2.30
2019-02-17T12:08:50.611Z,2.00
2019-02-17T12:11:19.578Z,2.30
2019-02-17T12:13:48.386Z,2.50
2019-02-17T12:16:17.135Z,2.60
2019-02-17T12:18:45.871Z,2.30
2019-02-17T12:21:16.293Z,1.50
2019-02-17T12:23:47.030Z,1.00
2019-02-17T12:26:17.348Z,1.00
2019-02-17T12:28:48.012Z,1.00
2019-02-17T12:31:18.668Z,1.00
2019-02-17T12:33:47.455Z,1.00
2019-02-17T12:36:16.283Z,1.00
2019-02-17T12:38:47.919Z,1.00
2019-02-17T12:41:19.544Z,1.00
2019-02-17T12:43:48.374Z,1.00
2019-02-17T12:46:18.797Z,1.00
2019-02-17T12:48:47.679Z,1.00
2019-02-17T12:51:16.456Z,1.00
2019-02-17T12:53:45.192Z,1.00
2019-02-17T12:56:14.227Z,1.00
2019-02-17T12:58:43.165Z,1.00
2019-02-17T13:01:13.559Z,1.00
2019-02-17T13:03:42.558Z,1.00
2019-02-17T13:06:11.449Z,1.00
2019-02-17T13:08:40.309Z,1.00
2019-02-17T13:11:11.624Z,1.00
2019-02-17T13:13:40.298Z,1.00
2019-02-17T13:16:09.116Z,1.00
2019-02-17T13:18:37.898Z,1.00
2019-02-17T13:21:08.120Z,1.00
2019-02-17T13:23:36.848Z,1.00
2019-02-17T13:26:05.588Z,1.00
2019-02-17T13:28:36.660Z,1.00
2019-02-17T13:31:05.021Z,1.00
2019-02-17T13:33:39.183Z,1.00
2019-02-17T13:36:04.611Z,1.00
2019-02-17T13:38:33.385Z,1.00
2019-02-17T13:41:02.195Z,1.00
2019-02-17T13:43:58.890Z,1.00
2019-02-17T13:46:27.783Z,1.00
2019-02-17T13:48:59.179Z,1.00
2019-02-17T13:51:27.976Z,1.00
2019-02-17T13:53:58.163Z,1.00
2019-02-17T13:56:28.388Z,1.00
2019-02-17T13:58:57.131Z,1.00
2019-02-17T14:01:27.532Z,1.00
2019-02-17T14:03:56.369Z,1.00
2019-02-17T14:06:28.065Z,1.00
2019-02-17T14:08:56.802Z,1.00
2019-02-17T14:11:25.503Z,1.00
2019-02-17T14:13:54.243Z,1.00
2019-02-17T14:16:23.022Z,1.00
2019-02-17T14:18:51.799Z,1.00
2019-02-17T14:21:22.122Z,1.00
2019-02-17T14:23:50.963Z,1.00
2019-02-17T14:26:19.690Z,1.00
2019-02-17T14:28:48.452Z,1.00
2019-02-17T14:31:17.325Z,1.00
2019-02-17T14:33:46.019Z,1.00
2019-02-17T14:36:14.804Z,1.00
2019-02-17T14:38:43.587Z,1.00
2019-02-17T14:41:12.312Z,1.00
2019-02-17T14:43:41.120Z,1.00
2019-02-17T14:46:09.914Z,1.00
2019-02-17T14:48:38.615Z,1.00
2019-02-17T14:51:07.353Z,1.00
2019-02-17T14:53:36.268Z,1.00
2019-02-17T14:56:05.115Z,1.00
2019-02-17T14:58:33.804Z,1.00
2019-02-17T15:01:02.617Z,1.00
2019-02-17T15:03:31.388Z,1.00
2019-02-17T15:06:00.220Z,1.00
2019-02-17T15:08:29.093Z,1.00
2019-02-17T15:10:59.513Z,1.00
2019-02-17T15:13:28.332Z,1.00
2019-02-17T15:15:59.936Z,1.00
2019-02-17T15:18:28.972Z,1.00
2019-02-17T15:20:57.807Z,1.00
2019-02-17T15:23:36.033Z,1.00
2019-02-17T15:26:07.612Z,1.00
2019-02-17T15:28:36.413Z,1.00
2019-02-17T15:31:05.316Z,1.00
2019-02-17T15:33:41.004Z,1.00
2019-02-17T15:36:15.702Z,1.00
2019-02-17T15:38:44.563Z,1.00
2019-02-17T15:41:13.336Z,1.00
2019-02-17T15:43:42.037Z,1.00
2019-02-17T15:46:13.260Z,1.00
2019-02-17T15:48:42.139Z,1.00
2019-02-17T15:51:10.922Z,1.00
2019-02-17T15:53:39.824Z,1.00
2019-02-17T15:56:08.718Z,1.00
2019-02-17T15:58:37.441Z,1.00
2019-02-17T16:01:10.547Z,1.00
2019-02-17T16:03:39.326Z,1.00
2019-02-17T16:06:09.477Z,1.00
2019-02-17T16:08:38.301Z,1.00
2019-02-17T16:11:06.999Z,1.00
2019-02-17T16:13:35.797Z,1.00
2019-02-17T16:16:04.732Z,1.00
2019-02-17T16:18:33.613Z,1.00
2019-02-17T16:21:02.569Z,1.00
2019-02-17T16:23:31.428Z,1.00
2019-02-17T16:26:03.016Z,1.00
2019-02-17T16:28:33.453Z,1.00
2019-02-17T16:31:02.155Z,1.00
2019-02-17T16:33:36.739Z,1.00
2019-02-17T16:36:05.490Z,1.00
2019-02-17T16:38:34.291Z,1.00
2019-02-17T16:41:03.028Z,1.00
2019-02-17T16:43:31.898Z,1.00
2019-02-17T16:46:01.958Z,1.00
2019-02-17T16:48:30.810Z,1.00
2019-02-17T16:51:01.009Z,1.00
2019-02-17T16:53:29.947Z,1.00
2019-02-17T16:55:58.813Z,1.00
2019-02-17T16:58:27.890Z,1.00
2019-02-17T17:00:56.992Z,1.00
2019-02-17T17:03:25.827Z,1.00
2019-02-17T17:05:56.467Z,1.00
2019-02-17T17:08:25.238Z,1.00
2019-02-17T17:10:54.028Z,1.10
2019-02-17T17:13:22.847Z,1.40
2019-02-17T17:15:51.659Z,1.80
2019-02-17T17:18:20.473Z,2.20
2019-02-17T17:20:49.553Z,2.60
2019-02-17T17:23:23.706Z,3.40
2019-02-17T17:25:52.519Z,3.80
2019-02-17T17:28:21.322Z,4.90
2019-02-17T17:30:50.046Z,6.30
2019-02-17T17:33:18.793Z,8.00
2019-02-17T17:35:47.615Z,8.70
2019-02-17T17:38:17.730Z,9.20
2019-02-17T17:40:46.563Z,10.00
2019-02-17T17:43:15.406Z,10.60
2019-02-17T17:45:44.169Z,11.60
2019-02-17T17:48:12.976Z,12.10
2019-02-17T17:50:42.288Z,13.30
2019-02-17T17:53:11.192Z,12.80
2019-02-17T17:55:39.985Z,12.90
2019-02-17T17:58:08.707Z,14.70
2019-02-17T18:00:38.358Z,17.60
2019-02-17T18:03:16.217Z,17.90
2019-02-17T18:05:44.954Z,16.60
2019-02-17T18:08:13.858Z,16.40
2019-02-17T18:10:42.622Z,18.40
2019-02-17T18:13:11.354Z,17.70
2019-02-17T18:15:40.174Z,18.40
2019-02-17T18:18:08.976Z,21.50
2019-02-17T18:20:37.715Z,21.80
2019-02-17T18:23:06.455Z,19.30
2019-02-17T18:25:37.031Z,19.60
2019-02-17T18:28:05.817Z,21.60
2019-02-17T18:30:34.738Z,22.40
2019-02-17T18:33:03.651Z,23.10
2019-02-17T18:35:32.449Z,22.80
2019-02-17T18:38:01.268Z,23.30
2019-02-17T18:40:30.029Z,23.10
2019-02-17T18:42:58.814Z,23.00
2019-02-17T18:45:27.565Z,23.60
2019-02-17T18:47:56.528Z,23.60
2019-02-17T18:50:25.334Z,24.70
2019-02-17T18:52:54.124Z,25.80
2019-02-17T18:55:22.966Z,25.70
2019-02-17T18:57:51.805Z,26.10
2019-02-17T19:00:23.204Z,28.20
2019-02-17T19:02:52.159Z,28.10
2019-02-17T19:05:31.166Z,27.10
2019-02-17T19:07:52.366Z,28.30
2019-02-17T19:10:22.359Z,26.80
2019-02-17T19:12:51.092Z,28.10
2019-02-17T19:15:21.373Z,27.30
2019-02-17T19:17:50.248Z,27.00
2019-02-17T19:20:21.708Z,26.80
2019-02-17T19:22:50.602Z,25.00
2019-02-17T19:25:19.430Z,24.40
2019-02-17T19:27:48.128Z,27.10
2019-02-17T19:30:17.733Z,26.60
2019-02-17T19:32:46.598Z,20.40
2019-02-17T19:35:16.191Z,19.50
2019-02-17T19:37:45.022Z,16.90
2019-02-17T19:40:14.702Z,15.90
2019-02-17T19:42:43.519Z,15.90
2019-02-17T19:45:14.851Z,16.40
2019-02-17T19:47:43.704Z,16.00
2019-02-17T19:50:15.112Z,16.00
2019-02-17T19:52:43.941Z,16.50
2019-02-17T19:55:13.797Z,17.50
2019-02-17T19:57:42.713Z,17.40
2019-02-17T20:00:13.462Z,18.30
2019-02-17T20:02:43.910Z,18.60
2019-02-17T20:05:14.302Z,18.80
2019-02-17T20:07:46.352Z,19.40
2019-02-17T20:10:15.233Z,18.70
2019-02-17T20:12:44.013Z,17.50
2019-02-17T20:15:15.463Z,17.20
2019-02-17T20:17:44.294Z,17.70
2019-02-17T20:20:13.117Z,16.40
2019-02-17T20:22:41.959Z,15.40
2019-02-17T20:25:10.949Z,14.80
2019-02-17T20:27:39.741Z,15.50
2019-02-17T20:30:11.628Z,16.60
2019-02-17T20:32:40.492Z,17.50
2019-02-17T20:35:10.020Z,17.60
2019-02-17T20:37:38.860Z,17.50
2019-02-17T20:40:10.194Z,18.00
2019-02-17T20:42:39.644Z,19.30
2019-02-17T20:45:10.312Z,19.90
2019-02-17T20:47:39.097Z,20.70
2019-02-17T20:50:10.861Z,21.50
2019-02-17T20:52:39.612Z,22.10
2019-02-17T20:55:10.537Z,23.20
2019-02-17T20:57:39.287Z,23.10
2019-02-17T21:00:11.540Z,23.10
2019-02-17T21:02:40.606Z,23.20
2019-02-17T21:05:10.636Z,23.20
2019-02-17T21:07:39.504Z,22.90
2019-02-17T21:10:10.921Z,23.40
2019-02-17T21:12:39.697Z,24.00
2019-02-17T21:15:11.266Z,24.00
2019-02-17T21:17:40.039Z,24.40
2019-02-17T21:20:10.162Z,24.70
2019-02-17T21:22:39.006Z,24.80
2019-02-17T21:25:10.578Z,25.20
2019-02-17T21:27:39.411Z,25.20
2019-02-17T21:30:11.070Z,24.00
2019-02-17T21:32:41.308Z,24.00
2019-02-17T21:35:12.600Z,25.20
2019-02-17T21:37:45.285Z,25.20
2019-02-17T21:40:14.828Z,25.80
2019-02-17T21:42:43.598Z,26.90
2019-02-17T21:45:16.891Z,28.40
2019-02-17T21:47:45.763Z,29.60
2019-02-17T21:50:19.573Z,30.60
2019-02-17T21:52:54.370Z,32.80
2019-02-17T21:55:33.817Z,33.30
2019-02-17T21:58:04.010Z,35.00
2019-02-17T22:00:41.420Z,37.40
2019-02-17T22:03:10.283Z,38.30
2019-02-17T22:05:39.592Z,38.50
2019-02-17T22:08:09.850Z,36.40
2019-02-17T22:13:44.136Z,37.40
2019-02-17T22:16:16.164Z,39.30
2019-02-17T22:18:49.142Z,40.60
2019-02-17T22:21:17.933Z,43.20
2019-02-17T22:23:49.231Z,42.50
2019-02-17T22:26:20.635Z,43.20
2019-02-17T22:28:49.409Z,41.90
2019-02-17T22:31:18.204Z,41.60
2019-02-17T22:33:46.939Z,43.40
2019-02-17T22:36:23.602Z,45.80
2019-02-17T22:38:52.402Z,46.30
2019-02-17T22:41:21.133Z,47.10
2019-02-17T22:43:49.926Z,47.80
2019-02-17T22:46:18.653Z,49.50
2019-02-17T22:48:47.418Z,50.40
2019-02-17T22:51:16.276Z,47.50
2019-02-17T22:53:45.003Z,44.90
2019-02-17T22:56:13.704Z,45.90
2019-02-17T22:58:42.391Z,46.10
2019-02-17T23:01:13.128Z,45.60
2019-02-17T23:03:41.873Z,46.60
2019-02-17T23:06:11.110Z,47.90
2019-02-17T23:08:39.722Z,49.40
2019-02-17T23:11:08.444Z,50.30
2019-02-17T23:13:37.195Z,46.30
2019-02-17T23:16:05.906Z,41.60
2019-02-17T23:18:34.751Z,38.70
2019-02-17T23:21:03.704Z,38.40
2019-02-17T23:23:32.570Z,40.90
2019-02-17T23:26:01.255Z,41.80
2019-02-17T23:28:30.024Z,42.60
2019-02-17T23:30:58.952Z,47.50
2019-02-17T23:33:27.706Z,50.80
2019-02-17T23:35:56.530Z,52.30
2019-02-17T23:38:25.307Z,53.30
2019-02-17T23:40:54.050Z,54.10
2019-02-17T23:43:22.923Z,54.00
2019-02-17T23:45:51.677Z,53.00
2019-02-17T23:48:20.259Z,53.10
2019-02-17T23:50:49.043Z,54.30
2019-02-17T23:53:18.118Z,56.10
2019-02-17T23:55:46.818Z,55.50
2019-02-17T23:58:16.110Z,56.20
